Details From SBKP - Sao Paulo Viracopos
To SBEG - Eduardo Gomes
Flight Number -
Tags decoded
Created
Modified
Stats Distance 1,415 nm / 2,621 km
Max Altitude 0 ft / 0 m
Waypoints 4
Social Downloads 2
Likes 0
Share VATSIM

Download

Looking for another format? Having issues loading an existing format? Contact us
Advertisement - Login to hide

Notes

Requested: SBKP RCL UM417 SAMAR POPTI UM417 KOKMU SBEG Unmatched points: UM417 POPTI UM417 KOKMU

Route

SBKP RCL SAMAR SBEG

ID Type Via Altitude Latitude Longitude Leg Dist Tot Dist Heading (true) Name
O SBKP APT - 0 ft / 0 m -23.00738˚ -47.13452˚ - 0 nm - Sao Paulo Viracopos
RCL NDB - 0 ft / 0 m -22.43017˚ -47.56250˚ 41 nm 41 nm 326° / 326° RIO CLARO NDB
SAMAR FIX - 0 ft / 0 m -14.71300˚ -53.11942˚ 560 nm 602 nm 325° / 327° -
O SBEG APT - 0 ft / 0 m -3.03861˚ -60.04972˚ 812 nm 1415 nm 329° / 330° Eduardo Gomes

Altitude Profile

Advertisement - Login to hide

Weather


0- 5 10 15 20 25 30 35+ Temperature / ° C

Clouds and Precipitation
Forecast for 2018-05-24 00:00 UTC. Updated 2 hours ago

Ground ~20,000 ft ~40,000 ft Winds

SBKP

Details ICAO SBKP (VCP)
Name Sao Paulo Viracopos
Region Brazil
Timezone America/Sao_Paulo (UTC-3.0)
Stats Elevation 2,170 ft / 661 m (AMSL)
Location -23.007383° -47.134522°
Runways 1
Magnetic Variation 21.249° W

METAR

SBKP 240000Z 13015KT CAVOK 16/12 Q1024

Decode

TAF

TAF SBKP 232231Z 2400/2424 12008KT CAVOK TN12/2408Z TX26/2418Z PROB30 2409/2411 5000 BCFG BR NSC BECMG 2411/2413 07005KT PROB30 2415/2418 30005KT BECMG 2418/2420 22005KT BECMG 2420/2422 15007KT RMK PGO

Decode

Departure Runways

ID Width Length Bearing (true) Bearing (mag) Surface Threshold Offset Overrun Length
15 148 ft / 45 m 10,639 ft / 3,243 m 127.91° 149.16° Asphalt 0 ft / 0 m 205 ft / 62 m
33 148 ft / 45 m 10,639 ft / 3,243 m 307.90° 329.15° Asphalt 0 ft / 0 m 205 ft / 62 m

SBEG

Details ICAO SBEG (MAO)
Name Eduardo Gomes
Region Brazil
Timezone America/Manaus (UTC-4.0)
Stats Elevation 264 ft / 80 m (AMSL)
Location -3.038611° -60.049723°
Runways 1
Magnetic Variation 15.813° W

METAR

SBEG 240000Z 15004KT 9999 FEW008 SCT100 23/22 Q1014

Decode

TAF

TAF SBEG 232200Z 2400/2424 35004KT 9999 FEW015 TN22/2402Z TX30/2416Z BECMG 2404/2406 00000KT SCT010 BECMG 2408/2410 BKN006 BECMG 2412/2414 03005KT SCT015 BECMG 2415/2417 SCT020 FEW025TCU BECMG 2421/2423 00000KT FEW020 RMK PEN

Decode

Destination Runways

ID Width Length Bearing (true) Bearing (mag) Surface Threshold Offset Overrun Length
10 148 ft / 45 m 8,867 ft / 2,703 m 90.13° 105.94° Asphalt 0 ft / 0 m 215 ft / 66 m
28 148 ft / 45 m 8,867 ft / 2,703 m 270.13° 285.94° Asphalt 0 ft / 0 m 250 ft / 76 m

Approach Navaids

Runway Type Ident Frequency Range Bearing (true) Bearing (mag) Slope Elevation
10 Localiser IEG 110.30 MHz 18 nm / 33 km 90.55° 106.37° - 275 ft / 84 m (AMSL)
10 Glidescope IEG 110.30 MHz 10 nm / 19 km 90.13° 105.95° 3.04° 275 ft / 84 m (AMSL)
10 DME IEG 110.30 MHz 18 nm / 33 km - - - 264 ft / 80 m (AMSL)

Popular Alternatives